createdAt,value
2023-07-21T00:00:15.474Z,0.90
2023-07-21T00:03:05.350Z,1.23
2023-07-21T00:05:51.273Z,1.13
2023-07-21T00:08:39.695Z,1.43
2023-07-21T00:11:25.705Z,0.90
2023-07-21T00:14:14.729Z,1.63
2023-07-21T00:17:00.058Z,1.00
2023-07-21T00:19:46.470Z,1.17
2023-07-21T00:22:32.945Z,1.23
2023-07-21T00:25:19.076Z,0.87
2023-07-21T00:28:05.660Z,1.30
2023-07-21T00:30:51.945Z,1.07
2023-07-21T00:33:38.639Z,1.10
2023-07-21T00:36:24.540Z,1.70
2023-07-21T00:39:12.492Z,1.00
2023-07-21T00:41:58.268Z,1.57
2023-07-21T00:44:43.958Z,0.97
2023-07-21T00:47:30.817Z,1.00
2023-07-21T00:50:19.663Z,1.10
2023-07-21T00:53:06.291Z,1.07
2023-07-21T00:55:53.681Z,1.43
2023-07-21T00:58:39.497Z,1.30
2023-07-21T01:01:27.559Z,0.97
2023-07-21T01:04:13.824Z,1.13
2023-07-21T01:07:00.554Z,0.90
2023-07-21T01:09:46.822Z,1.40
2023-07-21T01:12:32.766Z,1.20
2023-07-21T01:15:18.355Z,1.30
2023-07-21T01:18:04.633Z,1.17
2023-07-21T01:20:51.393Z,1.30
2023-07-21T01:23:45.991Z,1.03
2023-07-21T01:26:32.477Z,1.20
2023-07-21T01:29:21.040Z,1.13
2023-07-21T01:32:10.236Z,1.30
2023-07-21T01:34:57.209Z,1.10
2023-07-21T01:37:47.139Z,1.27
2023-07-21T01:40:33.054Z,0.90
2023-07-21T01:43:19.158Z,1.37
2023-07-21T01:46:04.844Z,1.40
2023-07-21T01:48:50.500Z,1.17
2023-07-21T01:51:38.366Z,1.23
2023-07-21T01:54:36.516Z,1.23
2023-07-21T01:57:31.473Z,1.20
2023-07-21T02:00:18.367Z,1.30
2023-07-21T02:03:05.493Z,1.57
2023-07-21T02:05:54.000Z,1.23
2023-07-21T02:08:40.102Z,1.27
2023-07-21T02:11:31.350Z,1.13
2023-07-21T02:14:17.362Z,1.30
2023-07-21T02:17:02.726Z,1.33
2023-07-21T02:19:48.446Z,1.40
2023-07-21T02:22:34.163Z,1.00
2023-07-21T02:25:22.213Z,1.30
2023-07-21T02:28:09.992Z,1.30
2023-07-21T02:31:03.344Z,1.43
2023-07-21T02:33:49.308Z,1.00
2023-07-21T02:36:36.891Z,1.20
2023-07-21T02:39:22.442Z,1.30
2023-07-21T02:42:08.348Z,1.50
2023-07-21T02:44:53.801Z,1.60
2023-07-21T02:47:41.978Z,1.53
2023-07-21T02:50:31.434Z,1.60
2023-07-21T02:53:17.715Z,1.80
2023-07-21T02:56:06.910Z,2.00
2023-07-21T02:58:52.692Z,1.37
2023-07-21T03:01:40.218Z,1.20
2023-07-21T03:04:27.291Z,1.33
2023-07-21T03:07:12.818Z,1.60
2023-07-21T03:09:58.340Z,1.40
2023-07-21T03:12:43.882Z,1.57
2023-07-21T03:15:29.085Z,1.63
2023-07-21T03:18:17.398Z,1.63
2023-07-21T03:21:05.819Z,1.60
2023-07-21T03:23:53.428Z,1.40
2023-07-21T03:26:45.788Z,1.53
2023-07-21T03:29:31.465Z,1.40
2023-07-21T03:32:17.168Z,1.30
2023-07-21T03:35:06.199Z,1.47
2023-07-21T03:37:54.022Z,1.40
2023-07-21T03:40:42.654Z,1.60
2023-07-21T03:43:28.365Z,1.40
2023-07-21T03:46:15.890Z,1.80
2023-07-21T03:49:01.571Z,1.47
2023-07-21T03:51:47.286Z,1.37
2023-07-21T03:54:32.565Z,1.40
2023-07-21T03:57:18.318Z,1.30
2023-07-21T04:00:06.815Z,1.80
2023-07-21T04:02:52.936Z,1.50
2023-07-21T04:05:41.128Z,1.57
2023-07-21T04:08:26.735Z,1.83
2023-07-21T04:11:12.815Z,1.53
2023-07-21T04:14:01.116Z,1.80
2023-07-21T04:16:47.203Z,2.10
2023-07-21T04:19:32.574Z,2.30
2023-07-21T04:22:18.606Z,1.70
2023-07-21T04:25:04.461Z,1.77
2023-07-21T04:27:52.004Z,1.30
2023-07-21T04:30:37.931Z,1.70
2023-07-21T04:33:23.352Z,1.77
2023-07-21T04:36:08.917Z,1.70
2023-07-21T04:38:58.069Z,1.80
2023-07-21T04:41:44.052Z,1.80
2023-07-21T04:44:31.588Z,1.70
2023-07-21T04:47:17.554Z,1.83
2023-07-21T04:50:03.111Z,2.03
2023-07-21T04:52:48.616Z,1.90
2023-07-21T04:55:33.863Z,1.90
2023-07-21T04:58:19.848Z,2.20
2023-07-21T05:01:05.913Z,2.40
2023-07-21T05:03:51.639Z,2.10
2023-07-21T05:06:36.810Z,1.93
2023-07-21T05:09:22.432Z,2.00
2023-07-21T05:12:08.420Z,1.73
2023-07-21T05:14:54.475Z,2.07
2023-07-21T05:17:40.121Z,1.73
2023-07-21T05:20:27.751Z,1.90
2023-07-21T05:23:17.991Z,1.60
2023-07-21T05:26:03.938Z,1.70
2023-07-21T05:28:55.398Z,2.20
2023-07-21T05:31:40.904Z,1.90
2023-07-21T05:34:26.937Z,2.20
2023-07-21T05:37:14.149Z,1.70
2023-07-21T05:39:59.370Z,1.97
2023-07-21T05:42:48.087Z,2.10
2023-07-21T05:45:39.412Z,1.70
2023-07-21T05:48:27.920Z,1.97
2023-07-21T05:51:18.181Z,2.37
2023-07-21T05:54:08.919Z,2.20
2023-07-21T05:56:57.790Z,2.20
2023-07-21T05:59:46.437Z,2.10
2023-07-21T06:02:33.090Z,1.70
2023-07-21T06:05:18.766Z,2.30
2023-07-21T06:08:07.993Z,2.17
2023-07-21T06:10:58.168Z,2.47
2023-07-21T06:13:49.678Z,2.00
2023-07-21T06:16:35.678Z,1.60
2023-07-21T06:19:21.493Z,2.47
2023-07-21T06:22:07.560Z,7.73
2023-07-21T06:24:53.267Z,1.77
2023-07-21T06:27:38.731Z,2.00
2023-07-21T06:30:23.917Z,2.20
2023-07-21T06:33:12.143Z,2.10
2023-07-21T06:35:57.365Z,2.13
2023-07-21T06:38:43.009Z,1.87
2023-07-21T06:41:31.079Z,1.67
2023-07-21T06:44:17.223Z,1.80
2023-07-21T06:47:02.991Z,2.10
2023-07-21T06:49:48.328Z,3.60
2023-07-21T06:52:34.237Z,3.50
2023-07-21T06:55:22.576Z,3.37
2023-07-21T06:58:10.060Z,3.20
2023-07-21T07:00:58.756Z,3.93
2023-07-21T07:03:47.178Z,3.63
2023-07-21T07:06:34.105Z,4.63
2023-07-21T07:09:21.917Z,3.50
2023-07-21T07:12:08.540Z,3.67
2023-07-21T07:14:54.229Z,2.90
2023-07-21T07:17:39.989Z,2.87
2023-07-21T07:20:29.642Z,3.00
2023-07-21T07:23:15.255Z,2.90
2023-07-21T07:26:03.121Z,2.90
2023-07-21T07:28:50.779Z,2.50
2023-07-21T07:31:38.478Z,2.80
2023-07-21T07:34:26.464Z,2.67
2023-07-21T07:37:13.850Z,2.50
2023-07-21T07:39:59.254Z,2.67
2023-07-21T07:42:44.694Z,2.50
2023-07-21T07:45:31.110Z,2.70
2023-07-21T07:48:17.316Z,2.70
2023-07-21T07:51:07.534Z,2.80
2023-07-21T07:53:53.684Z,3.10
2023-07-21T07:56:39.776Z,2.10
2023-07-21T07:59:25.178Z,2.90
2023-07-21T08:02:10.879Z,2.60
2023-07-21T08:04:56.798Z,2.90
2023-07-21T08:07:42.986Z,2.10
2023-07-21T08:10:30.058Z,2.20
2023-07-21T08:13:15.900Z,2.40
2023-07-21T08:16:02.382Z,2.40
2023-07-21T08:18:47.882Z,1.93
2023-07-21T08:21:33.848Z,2.00
2023-07-21T08:24:21.318Z,2.60
2023-07-21T08:27:08.930Z,1.60
2023-07-21T08:29:54.980Z,2.30
2023-07-21T08:32:42.058Z,2.17
2023-07-21T08:35:29.009Z,2.00
2023-07-21T08:38:14.584Z,2.03
2023-07-21T08:41:09.057Z,2.10
2023-07-21T08:43:57.724Z,2.10
2023-07-21T08:46:43.149Z,1.60
2023-07-21T08:49:31.418Z,1.63
2023-07-21T08:52:19.464Z,2.07
2023-07-21T08:55:05.725Z,1.93
2023-07-21T08:57:56.568Z,1.53
2023-07-21T09:00:44.547Z,1.43
2023-07-21T09:03:31.911Z,1.30
2023-07-21T09:06:17.933Z,1.50
2023-07-21T09:09:04.145Z,1.37
2023-07-21T09:11:51.173Z,1.50
2023-07-21T09:14:45.019Z,1.30
2023-07-21T09:17:30.724Z,1.10
2023-07-21T09:20:16.500Z,1.13
2023-07-21T09:23:02.093Z,1.30
2023-07-21T09:25:56.223Z,1.10
2023-07-21T09:28:47.891Z,1.00
2023-07-21T09:31:36.038Z,1.13
2023-07-21T09:34:21.373Z,1.30
2023-07-21T09:37:16.692Z,0.90
2023-07-21T09:40:06.433Z,0.90
2023-07-21T09:42:51.938Z,0.90
2023-07-21T09:45:39.100Z,1.20
2023-07-21T09:48:27.304Z,0.90
2023-07-21T09:51:13.191Z,0.90
2023-07-21T09:54:03.970Z,0.80
2023-07-21T09:56:53.023Z,1.20
2023-07-21T09:59:40.721Z,1.10
2023-07-21T10:02:27.067Z,1.43
2023-07-21T10:05:15.253Z,1.00
2023-07-21T10:08:02.568Z,1.10
2023-07-21T10:10:50.109Z,1.10
2023-07-21T10:13:46.039Z,1.23
2023-07-21T10:16:31.766Z,1.60
2023-07-21T10:19:17.336Z,1.00
2023-07-21T10:22:02.686Z,1.23
2023-07-21T10:24:52.586Z,1.40
2023-07-21T10:27:40.636Z,1.47
2023-07-21T10:30:26.398Z,1.17
2023-07-21T10:33:15.613Z,1.60
2023-07-21T10:36:15.579Z,1.23
2023-07-21T10:39:08.773Z,1.20
2023-07-21T10:42:00.298Z,1.03
2023-07-21T10:44:49.275Z,1.47
2023-07-21T10:47:37.004Z,1.20
2023-07-21T10:50:23.668Z,1.50
2023-07-21T10:53:11.431Z,1.23
2023-07-21T10:56:08.017Z,1.10
2023-07-21T10:58:54.025Z,1.27
2023-07-21T11:01:51.727Z,1.17
2023-07-21T11:04:41.072Z,2.30
2023-07-21T11:07:31.693Z,1.10
2023-07-21T11:10:17.473Z,1.23
2023-07-21T11:13:03.698Z,1.13
2023-07-21T11:15:57.157Z,1.30
2023-07-21T11:18:43.499Z,0.90
2023-07-21T11:21:29.134Z,1.40
2023-07-21T11:24:19.383Z,1.20
2023-07-21T11:27:13.515Z,1.80
2023-07-21T11:29:59.468Z,1.47
2023-07-21T11:32:48.788Z,1.10
2023-07-21T11:35:34.356Z,0.90
2023-07-21T11:38:20.362Z,1.10
2023-07-21T11:41:08.568Z,1.00
2023-07-21T11:43:54.202Z,1.10
2023-07-21T11:46:44.615Z,1.20
2023-07-21T11:49:30.084Z,1.20
2023-07-21T11:52:27.792Z,1.10
2023-07-21T11:55:13.478Z,1.23
2023-07-21T11:58:01.607Z,1.03
2023-07-21T12:00:50.413Z,1.07
2023-07-21T12:03:37.788Z,1.20
2023-07-21T12:06:24.376Z,1.20
2023-07-21T12:09:10.627Z,1.00
2023-07-21T12:11:57.438Z,1.07
2023-07-21T12:14:43.063Z,1.40
2023-07-21T12:17:29.973Z,1.43
2023-07-21T12:20:15.671Z,1.00
2023-07-21T12:23:01.067Z,1.50
2023-07-21T12:25:46.709Z,1.17
2023-07-21T12:28:32.562Z,1.30
2023-07-21T12:31:20.765Z,1.00
2023-07-21T12:34:10.215Z,1.10
2023-07-21T12:36:55.775Z,1.37
2023-07-21T12:39:41.950Z,1.00
2023-07-21T12:42:29.607Z,1.30
2023-07-21T12:45:14.856Z,1.20
2023-07-21T12:48:03.239Z,1.30
2023-07-21T12:50:49.206Z,1.33
2023-07-21T12:53:34.608Z,0.97
2023-07-21T12:56:20.739Z,0.90
2023-07-21T12:59:06.682Z,1.03
2023-07-21T13:01:52.545Z,1.20
2023-07-21T13:04:38.258Z,1.20
2023-07-21T13:07:26.038Z,1.00
2023-07-21T13:10:14.300Z,1.20
2023-07-21T13:13:03.881Z,0.83
2023-07-21T13:15:51.598Z,1.17
2023-07-21T13:18:37.559Z,0.90
2023-07-21T13:21:22.792Z,1.27
2023-07-21T13:24:08.302Z,1.00
2023-07-21T13:26:55.165Z,1.20
2023-07-21T13:29:43.138Z,1.33
2023-07-21T13:32:28.974Z,1.10
2023-07-21T13:35:14.384Z,1.10
2023-07-21T13:38:02.859Z,1.10
2023-07-21T13:40:48.609Z,1.33
2023-07-21T13:43:33.882Z,1.10
2023-07-21T13:46:24.334Z,1.10
2023-07-21T13:49:11.750Z,1.47
2023-07-21T13:51:59.048Z,1.07
2023-07-21T13:54:44.981Z,0.93
2023-07-21T13:57:32.411Z,1.00
2023-07-21T14:00:22.848Z,1.40
2023-07-21T14:03:08.496Z,1.20
2023-07-21T14:05:54.876Z,0.97
2023-07-21T14:08:40.673Z,1.10
2023-07-21T14:11:31.983Z,1.10
2023-07-21T14:14:19.058Z,1.30
2023-07-21T14:17:05.017Z,0.90
2023-07-21T14:19:50.714Z,1.23
2023-07-21T14:22:36.656Z,1.00
2023-07-21T14:25:22.475Z,1.10
2023-07-21T14:28:07.681Z,1.20
2023-07-21T14:30:56.600Z,0.70
2023-07-21T14:33:42.392Z,0.88
2023-07-21T14:36:30.640Z,0.90
2023-07-21T14:39:16.941Z,1.05
2023-07-21T14:42:02.686Z,0.73
2023-07-21T14:44:48.121Z,0.88
2023-07-21T14:47:33.957Z,0.90
2023-07-21T14:50:19.827Z,1.35
2023-07-21T14:53:05.452Z,1.00
2023-07-21T14:55:51.202Z,1.00
2023-07-21T14:58:39.774Z,1.20
2023-07-21T15:01:25.263Z,0.90
2023-07-21T15:04:11.779Z,1.00
2023-07-21T15:06:57.141Z,1.20
2023-07-21T15:09:45.519Z,1.10
2023-07-21T15:12:33.147Z,1.07
2023-07-21T15:15:18.668Z,0.90
2023-07-21T15:18:04.002Z,0.93
2023-07-21T15:20:49.781Z,1.20
2023-07-21T15:23:35.566Z,1.23
2023-07-21T15:26:21.312Z,1.10
2023-07-21T15:29:09.824Z,1.13
2023-07-21T15:31:55.666Z,1.13
2023-07-21T15:34:43.481Z,1.00
2023-07-21T15:37:29.230Z,1.03
2023-07-21T15:40:15.852Z,1.00
2023-07-21T15:43:01.264Z,1.00
2023-07-21T15:45:46.742Z,0.90
2023-07-21T15:48:33.034Z,1.10
2023-07-21T15:51:19.355Z,1.03
2023-07-21T15:56:56.781Z,1.13
2023-07-21T15:59:44.948Z,1.43
2023-07-21T16:02:31.607Z,1.30
2023-07-21T16:05:20.098Z,1.00
2023-07-21T16:08:06.333Z,1.03
2023-07-21T16:10:52.393Z,1.00
2023-07-21T16:13:40.829Z,1.00
2023-07-21T16:16:26.738Z,1.20
2023-07-21T16:19:12.212Z,1.00
2023-07-21T16:22:00.210Z,1.17
2023-07-21T16:24:45.502Z,1.00
2023-07-21T16:27:31.330Z,1.57
2023-07-21T16:30:17.306Z,1.40
2023-07-21T16:33:02.701Z,1.00
2023-07-21T16:35:52.204Z,1.37
2023-07-21T16:38:37.812Z,1.10
2023-07-21T16:41:25.395Z,1.20
2023-07-21T16:44:13.506Z,1.20
2023-07-21T16:46:58.858Z,1.27
2023-07-21T16:49:44.601Z,1.50
2023-07-21T16:52:29.943Z,1.33
2023-07-21T16:55:15.418Z,1.90
2023-07-21T16:58:01.194Z,1.20
2023-07-21T17:00:47.031Z,1.37
2023-07-21T17:03:33.130Z,1.43
2023-07-21T17:06:19.884Z,1.50
2023-07-21T17:09:05.805Z,1.10
2023-07-21T17:11:51.097Z,2.17
2023-07-21T17:14:36.549Z,1.10
2023-07-21T17:17:22.408Z,1.10
2023-07-21T17:20:12.988Z,1.23
2023-07-21T17:22:58.862Z,1.33
2023-07-21T17:25:47.116Z,1.60
2023-07-21T17:28:34.319Z,1.60
2023-07-21T17:31:19.769Z,1.47
2023-07-21T17:34:08.403Z,1.60
2023-07-21T17:36:53.641Z,1.80
2023-07-21T17:39:40.709Z,1.93
2023-07-21T17:42:26.117Z,2.23
2023-07-21T17:45:13.234Z,2.37
2023-07-21T17:48:03.344Z,2.10
2023-07-21T17:50:48.698Z,2.10
2023-07-21T17:53:36.260Z,1.70
2023-07-21T17:56:22.699Z,2.43
2023-07-21T17:59:08.340Z,2.67
2023-07-21T18:01:53.920Z,2.60
2023-07-21T18:04:42.229Z,3.17
2023-07-21T18:07:29.923Z,3.30
2023-07-21T18:10:15.197Z,3.00
2023-07-21T18:13:01.515Z,2.57
2023-07-21T18:15:46.960Z,3.37
2023-07-21T18:18:32.642Z,2.67
2023-07-21T18:21:18.217Z,3.10
2023-07-21T18:24:03.766Z,2.87
2023-07-21T18:26:51.694Z,3.40
2023-07-21T18:29:37.085Z,2.97
2023-07-21T18:32:22.435Z,3.40
2023-07-21T18:35:11.320Z,3.33
2023-07-21T18:37:56.976Z,3.50
2023-07-21T18:40:42.528Z,3.00
2023-07-21T18:43:27.844Z,3.53
2023-07-21T18:46:14.909Z,3.50
2023-07-21T18:49:00.184Z,3.77
2023-07-21T18:51:46.450Z,3.70
2023-07-21T18:54:33.677Z,3.20
2023-07-21T18:57:19.103Z,3.73
2023-07-21T19:00:09.215Z,3.23
2023-07-21T19:02:54.915Z,2.90
2023-07-21T19:05:40.888Z,3.27
2023-07-21T19:08:28.979Z,3.80
2023-07-21T19:11:18.904Z,3.57
2023-07-21T19:14:04.831Z,4.07
2023-07-21T19:16:50.438Z,3.60
2023-07-21T19:19:36.109Z,4.20
2023-07-21T19:22:21.898Z,4.73
2023-07-21T19:25:11.480Z,5.10
2023-07-21T19:27:57.041Z,3.70
2023-07-21T19:30:43.126Z,3.30
2023-07-21T19:33:29.780Z,4.50
2023-07-21T19:36:15.905Z,3.80
2023-07-21T19:39:01.173Z,5.00
2023-07-21T19:41:46.818Z,4.87
2023-07-21T19:44:35.763Z,4.07
2023-07-21T19:47:25.353Z,6.83
2023-07-21T19:50:11.411Z,5.10
2023-07-21T19:52:57.586Z,5.20
2023-07-21T19:55:43.340Z,4.97
2023-07-21T19:58:28.551Z,5.37
2023-07-21T20:01:17.616Z,5.27
2023-07-21T20:04:03.581Z,5.70
2023-07-21T20:06:51.401Z,5.30
2023-07-21T20:09:39.074Z,6.07
2023-07-21T20:12:27.654Z,5.50
2023-07-21T20:15:13.849Z,4.90
2023-07-21T20:17:59.866Z,5.50
2023-07-21T20:20:45.187Z,5.03
2023-07-21T20:23:30.930Z,5.37
2023-07-21T20:26:16.869Z,5.60
2023-07-21T20:29:03.899Z,4.47
2023-07-21T20:31:50.147Z,5.47
2023-07-21T20:34:35.995Z,4.13
2023-07-21T20:37:22.071Z,4.10
2023-07-21T20:40:08.442Z,3.97
2023-07-21T20:42:56.385Z,3.87
2023-07-21T20:45:43.121Z,4.20
2023-07-21T20:48:29.226Z,4.67
2023-07-21T20:51:17.732Z,3.90
2023-07-21T20:54:03.477Z,4.27
2023-07-21T20:56:51.601Z,4.03
2023-07-21T20:59:42.045Z,4.80
2023-07-21T21:02:33.857Z,5.47
2023-07-21T21:05:20.508Z,4.40
2023-07-21T21:08:06.278Z,5.70
2023-07-21T21:10:51.785Z,5.70
2023-07-21T21:13:37.551Z,5.80
2023-07-21T21:16:23.356Z,7.47
2023-07-21T21:19:11.160Z,8.40
2023-07-21T21:21:57.000Z,8.13
2023-07-21T21:24:43.669Z,8.00
2023-07-21T21:27:29.207Z,8.67
2023-07-21T21:30:14.545Z,8.13
2023-07-21T21:32:59.864Z,6.63
2023-07-21T21:35:47.503Z,6.30
2023-07-21T21:38:33.444Z,6.90
2023-07-21T21:41:23.560Z,6.50
2023-07-21T21:44:09.195Z,6.60
2023-07-21T21:46:54.886Z,6.37
2023-07-21T21:49:40.310Z,6.10
2023-07-21T21:52:26.077Z,6.00
2023-07-21T21:55:12.218Z,4.67
2023-07-21T21:57:57.637Z,5.03
2023-07-21T22:00:43.579Z,4.77
2023-07-21T22:03:29.285Z,5.40
2023-07-21T22:06:15.513Z,5.77
2023-07-21T22:09:01.275Z,4.80
2023-07-21T22:11:46.727Z,5.80
2023-07-21T22:14:32.096Z,7.83
2023-07-21T22:17:19.949Z,7.17
2023-07-21T22:20:11.611Z,7.97
2023-07-21T22:22:58.337Z,6.57
2023-07-21T22:25:46.144Z,5.90
2023-07-21T22:28:34.311Z,5.27
2023-07-21T22:31:19.942Z,6.17
2023-07-21T22:34:06.557Z,4.63
2023-07-21T22:36:52.340Z,4.30
2023-07-21T22:39:45.120Z,5.00
2023-07-21T22:42:30.735Z,4.40
2023-07-21T22:45:16.557Z,4.80
2023-07-21T22:48:02.074Z,4.70
2023-07-21T22:50:47.703Z,4.53
2023-07-21T22:53:33.273Z,4.70
2023-07-21T22:56:18.833Z,4.30
2023-07-21T22:59:04.775Z,4.43
2023-07-21T23:01:50.374Z,4.17
2023-07-21T23:04:36.277Z,4.30
2023-07-21T23:07:24.989Z,4.60
2023-07-21T23:10:10.399Z,4.40
2023-07-21T23:12:55.669Z,5.47
2023-07-21T23:15:41.384Z,5.77
2023-07-21T23:18:27.043Z,5.97
2023-07-21T23:21:12.642Z,6.00
2023-07-21T23:24:00.590Z,7.20
2023-07-21T23:26:46.116Z,5.63
2023-07-21T23:29:32.263Z,5.47
2023-07-21T23:32:19.711Z,5.17
2023-07-21T23:35:05.597Z,5.23
2023-07-21T23:37:54.035Z,5.43
2023-07-21T23:40:39.413Z,4.90
2023-07-21T23:43:25.282Z,5.20
2023-07-21T23:46:11.443Z,5.30
2023-07-21T23:48:59.276Z,4.83
2023-07-21T23:51:44.691Z,4.80
2023-07-21T23:54:32.556Z,5.97
2023-07-21T23:57:18.155Z,4.77
